Time;durP1;ratioP1;P1;durP2;ratioP2;P2;SDS_P1;SDS_P2;PMS_P1;PMS_P2;Temp;Humidity;BMP_temperature;BMP_pressure;BME280_temperature;BME280_humidity;BME280_pressure;Samples;Min_cycle;Max_cycle;Signal;HPM_P1;HPM_P2
2022/11/14 00:02:52;;;;;;;12.55;7.40;;;;;;;3.72;100.00;101113.22;6198120;28;20129;-71
2022/11/14 00:05:53;;;;;;;16.52;7.30;;;;;;;3.77;100.00;101119.16;6196672;28;20054;-71
2022/11/14 00:08:53;;;;;;;13.93;8.23;;;;;;;3.77;100.00;101126.91;6208723;28;20077;-71
2022/11/14 00:11:54;;;;;;;19.80;7.80;;;;;;;3.78;100.00;101123.44;6196785;28;20064;-71
2022/11/14 00:14:55;;;;;;;10.77;7.22;;;;;;;3.83;100.00;101115.66;6197976;28;20435;-71
2022/11/14 00:17:56;;;;;;;12.85;7.30;;;;;;;3.76;100.00;101116.59;6196712;28;20050;-72
2022/11/14 00:20:57;;;;;;;13.80;7.53;;;;;;;3.76;100.00;101119.19;6196718;28;20084;-71
2022/11/14 00:23:57;;;;;;;12.73;7.75;;;;;;;3.78;100.00;101118.28;6298819;28;20082;-71
2022/11/14 00:26:58;;;;;;;11.30;6.95;;;;;;;3.77;100.00;101116.59;6197815;28;20042;-71
2022/11/14 00:29:59;;;;;;;13.68;8.07;;;;;;;3.82;100.00;101121.66;6195696;28;20051;-71
2022/11/14 00:32:59;;;;;;;9.80;5.95;;;;;;;3.81;100.00;101130.31;6196284;28;20042;-71
2022/11/14 00:36:00;;;;;;;12.93;7.65;;;;;;;3.88;100.00;101120.72;6196464;28;20489;-71
2022/11/14 00:39:01;;;;;;;12.32;7.30;;;;;;;3.95;100.00;101115.41;6196344;28;20096;-71
2022/11/14 00:42:02;;;;;;;12.73;7.00;;;;;;;3.92;100.00;101118.06;6196329;28;20088;-71
2022/11/14 00:45:03;;;;;;;15.18;8.30;;;;;;;3.92;100.00;101120.66;6197460;28;20493;-71
2022/11/14 00:48:04;;;;;;;12.48;8.40;;;;;;;3.96;100.00;101121.47;6298500;28;20085;-71
2022/11/14 00:51:05;;;;;;;11.80;7.38;;;;;;;4.02;100.00;101118.78;6197080;28;20103;-71
2022/11/14 00:54:05;;;;;;;12.65;7.45;;;;;;;4.03;100.00;101103.22;6196015;28;20454;-71
2022/11/14 00:57:08;;;;;;;10.65;6.75;;;;;;;4.06;100.00;101098.88;6195854;28;20494;-71
2022/11/14 01:00:12;;;;;;;9.55;6.75;;;;;;;4.10;100.00;101108.28;6195972;28;20198;-71
2022/11/14 01:03:13;;;;;;;12.98;8.25;;;;;;;4.09;100.00;101106.59;6197204;28;20081;-71
2022/11/14 01:06:15;;;;;;;11.27;7.32;;;;;;;4.04;100.00;101104.09;6297851;28;20042;-71
2022/11/14 01:09:16;;;;;;;16.05;8.07;;;;;;;4.12;100.00;101101.38;6179436;28;20074;-72
2022/11/14 01:12:16;;;;;;;10.73;6.78;;;;;;;4.12;100.00;101104.81;6297995;28;20054;-71
2022/11/14 01:15:17;;;;;;;15.40;8.70;;;;;;;4.14;100.00;101107.34;6196911;28;20394;-71
2022/11/14 01:18:20;;;;;;;14.25;8.65;;;;;;;4.13;100.00;101103.09;6200596;28;20105;-70
2022/11/14 01:21:20;;;;;;;14.80;7.13;;;;;;;4.01;100.00;101094.66;6220057;28;20050;-71
2022/11/14 01:24:23;;;;;;;10.93;6.65;;;;;;;3.94;100.00;101087.91;6220555;28;20091;-71
2022/11/14 01:27:25;;;;;;;12.82;6.85;;;;;;;4.01;100.00;101091.22;6218961;28;20077;-71
2022/11/14 01:30:31;;;;;;;11.65;7.38;;;;;;;4.04;100.00;101088.59;6219536;28;20053;-71
2022/11/14 01:33:31;;;;;;;17.20;9.18;;;;;;;4.10;100.00;101080.75;6219547;28;20069;-71
2022/11/14 01:36:32;;;;;;;16.25;8.48;;;;;;;4.11;100.00;101090.19;6219462;28;20427;-71
2022/11/14 01:39:33;;;;;;;15.43;7.07;;;;;;;4.13;100.00;101079.84;6219688;28;20133;-71
2022/11/14 01:42:33;;;;;;;13.30;8.13;;;;;;;4.11;100.00;101089.34;6219368;28;20049;-71
2022/11/14 01:45:50;;;;;;;12.93;7.70;;;;;;;4.13;100.00;101090.16;6219338;28;20061;-71
2022/11/14 01:48:55;;;;;;;10.00;6.18;;;;;;;4.08;100.00;101092.84;6220557;28;20173;-71
2022/11/14 01:52:04;;;;;;;13.73;7.97;;;;;;;4.09;100.00;101080.78;6220530;28;20042;-71
2022/11/14 01:55:07;;;;;;;13.88;8.43;;;;;;;4.05;100.00;101077.38;6219096;28;20046;-71
2022/11/14 01:58:09;;;;;;;15.55;7.28;;;;;;;4.08;100.00;101079.03;6220356;28;20045;-71
2022/11/14 02:01:09;;;;;;;11.23;6.97;;;;;;;4.00;100.00;101074.88;6220338;28;20046;-71
2022/11/14 02:04:13;;;;;;;11.73;7.13;;;;;;;3.96;100.00;101075.81;6218972;28;20489;-71
2022/11/14 02:07:14;;;;;;;13.35;6.72;;;;;;;3.90;100.00;101068.19;6218723;28;20091;-71
2022/11/14 02:10:18;;;;;;;10.45;6.47;;;;;;;3.87;100.00;101070.81;6220106;28;20046;-70
2022/11/14 02:13:18;;;;;;;9.85;6.45;;;;;;;3.80;100.00;101069.22;6202478;28;20083;-71
2022/11/14 02:16:19;;;;;;;13.23;6.97;;;;;;;3.80;100.00;101076.97;6218719;28;20399;-71
2022/11/14 02:19:22;;;;;;;11.20;7.35;;;;;;;3.80;100.00;101070.06;6220164;28;20443;-71
2022/11/14 02:22:23;;;;;;;12.38;7.60;;;;;;;3.72;100.00;101066.75;6218945;28;20049;-71
2022/11/14 02:25:24;;;;;;;14.07;7.38;;;;;;;3.68;100.00;101069.41;6219881;28;20107;-71
2022/11/14 02:28:26;;;;;;;10.65;6.00;;;;;;;3.62;100.00;101062.63;6218860;28;20058;-71
2022/11/14 02:31:26;;;;;;;12.73;7.10;;;;;;;3.59;100.00;101060.09;6219675;28;20047;-71
2022/11/14 02:34:29;;;;;;;11.90;6.55;;;;;;;3.57;100.00;101067.84;6218480;28;20052;-71
2022/11/14 02:37:31;;;;;;;13.55;7.32;;;;;;;3.48;100.00;101069.72;6219478;28;20046;-71
2022/11/14 02:40:32;;;;;;;11.45;6.68;;;;;;;3.37;100.00;101057.84;6218689;28;20053;-71
2022/11/14 02:43:33;;;;;;;10.98;6.90;;;;;;;3.33;100.00;101058.75;6218422;28;20104;-70
2022/11/14 02:46:33;;;;;;;10.40;6.97;;;;;;;3.32;100.00;101061.38;6218201;28;20042;-71
2022/11/14 02:49:34;;;;;;;9.52;5.82;;;;;;;3.32;100.00;101069.13;6218021;28;20050;-71
2022/11/14 02:52:36;;;;;;;13.48;7.25;;;;;;;3.31;100.00;101063.09;6218019;28;20038;-71
2022/11/14 02:55:37;;;;;;;12.13;6.80;;;;;;;3.28;100.00;101054.56;6218056;28;20045;-71
2022/11/14 02:58:38;;;;;;;14.07;7.20;;;;;;;3.29;100.00;101053.66;6218048;28;20408;-71
2022/11/14 03:01:39;;;;;;;11.45;6.90;;;;;;;3.30;100.00;101055.41;6219335;28;20089;-71
2022/11/14 03:04:41;;;;;;;10.18;5.93;;;;;;;3.20;100.00;101052.09;6217935;28;20053;-71
2022/11/14 03:07:42;;;;;;;12.48;7.63;;;;;;;3.08;100.00;101047.09;6217894;28;20509;-71
2022/11/14 03:10:43;;;;;;;9.18;6.30;;;;;;;3.08;100.00;101053.09;6219337;28;20042;-71
2022/11/14 03:13:44;;;;;;;11.00;6.47;;;;;;;3.06;100.00;101047.13;6219233;28;20034;-71
2022/11/14 03:16:45;;;;;;;8.77;5.63;;;;;;;3.08;100.00;101049.69;6217897;28;20119;-71
2022/11/14 03:19:47;;;;;;;10.73;5.75;;;;;;;3.03;100.00;101049.75;6218447;28;20046;-71
2022/11/14 03:22:49;;;;;;;20.10;8.10;;;;;;;2.97;100.00;101050.69;6218348;28;20057;-71
2022/11/14 03:25:49;;;;;;;11.20;6.55;;;;;;;2.93;100.00;101043.03;6218700;28;20046;-72
2022/11/14 03:28:50;;;;;;;7.97;6.03;;;;;;;2.86;100.00;101043.97;6218904;28;20106;-71
2022/11/14 03:31:53;;;;;;;9.90;6.43;;;;;;;2.88;100.00;101045.63;6218824;28;20050;-71
2022/11/14 03:34:54;;;;;;;11.60;5.82;;;;;;;2.86;100.00;101038.81;6218803;28;20474;-71
2022/11/14 03:37:54;;;;;;;12.48;6.38;;;;;;;2.83;100.00;101039.72;6217569;28;20102;-71
2022/11/14 03:40:57;;;;;;;15.55;7.13;;;;;;;2.80;100.00;101027.72;6218897;28;20073;-71
2022/11/14 03:43:58;;;;;;;13.60;7.07;;;;;;;2.72;100.00;101029.53;6201126;28;20064;-71
2022/11/14 03:46:59;;;;;;;12.30;7.03;;;;;;;2.74;100.00;101024.34;6218577;28;20038;-71
2022/11/14 03:50:00;;;;;;;10.07;5.78;;;;;;;2.52;100.00;101031.53;6218436;28;20102;-71
2022/11/14 03:53:00;;;;;;;11.13;7.10;;;;;;;2.49;100.00;101031.53;6217438;28;20046;-71
2022/11/14 03:56:01;;;;;;;13.50;5.50;;;;;;;2.51;100.00;101032.38;6217035;28;20371;-71
2022/11/14 03:59:02;;;;;;;12.88;6.75;;;;;;;2.47;100.00;101023.84;6217206;28;20049;-70
2022/11/14 04:02:02;;;;;;;9.70;5.93;;;;;;;2.40;100.00;101014.47;6217214;28;20095;-73
2022/11/14 04:05:03;;;;;;;9.68;5.28;;;;;;;2.34;100.00;101014.56;6222503;28;20077;-73
2022/11/14 04:08:05;;;;;;;7.82;5.15;;;;;;;2.33;100.00;101003.41;6221640;28;20116;-73
2022/11/14 04:11:06;;;;;;;11.48;6.18;;;;;;;2.28;100.00;101012.88;6221645;28;20050;-73
2022/11/14 04:14:10;;;;;;;12.65;6.38;;;;;;;2.37;100.00;101011.97;6222829;28;20085;-73
2022/11/14 04:17:11;;;;;;;10.10;6.47;;;;;;;2.39;100.00;101018.78;6221589;28;20469;-73
2022/11/14 04:20:13;;;;;;;7.97;5.78;;;;;;;2.46;100.00;101010.97;6221572;28;20050;-73
2022/11/14 04:23:14;;;;;;;10.48;5.97;;;;;;;2.44;100.00;101007.56;6222524;28;20118;-73
2022/11/14 04:26:15;;;;;;;10.02;6.45;;;;;;;2.35;100.00;101011.13;6222551;28;20490;-73
2022/11/14 04:29:16;;;;;;;9.07;5.88;;;;;;;2.43;100.00;101001.56;6222382;28;20048;-73
2022/11/14 04:32:16;;;;;;;11.55;6.63;;;;;;;2.29;100.00;100994.00;6221284;28;20058;-73
2022/11/14 04:35:17;;;;;;;11.30;7.07;;;;;;;2.27;100.00;101008.63;6204590;28;20163;-73
2022/11/14 04:38:18;;;;;;;9.55;5.95;;;;;;;2.26;100.00;100998.34;6221023;28;20050;-73
2022/11/14 04:41:18;;;;;;;12.15;6.10;;;;;;;2.24;100.00;100995.78;6221211;28;20081;-73
2022/11/14 04:44:19;;;;;;;15.25;5.80;;;;;;;2.15;100.00;100994.16;6220959;28;20094;-73
2022/11/14 04:47:20;;;;;;;11.77;5.97;;;;;;;2.16;100.00;101001.03;6220767;28;20052;-73
2022/11/14 04:50:20;;;;;;;6.65;5.15;;;;;;;2.24;100.00;101000.06;6220493;28;20050;-73
2022/11/14 04:53:21;;;;;;;9.30;6.07;;;;;;;2.24;100.00;101000.06;6222049;28;20049;-73
2022/11/14 04:56:24;;;;;;;12.00;7.03;;;;;;;2.04;100.00;101003.75;6221900;28;20046;-73
2022/11/14 04:59:24;;;;;;;8.82;5.35;;;;;;;2.05;100.00;100994.28;6221924;28;20129;-73
2022/11/14 05:02:29;;;;;;;9.93;5.95;;;;;;;2.00;100.00;100995.19;6220594;28;20042;-73
2022/11/14 05:05:30;;;;;;;9.07;5.60;;;;;;;2.01;100.00;100991.72;6220653;28;20751;-73
2022/11/14 05:08:31;;;;;;;10.40;7.03;;;;;;;1.82;100.00;100990.22;6221811;28;20038;-73
2022/11/14 05:11:32;;;;;;;11.10;7.47;;;;;;;1.58;100.00;100989.56;6220000;28;20069;-73
2022/11/14 05:14:33;;;;;;;18.00;9.52;;;;;;;1.46;100.00;100989.69;6220648;28;20050;-73
2022/11/14 05:17:33;;;;;;;11.60;7.20;;;;;;;1.39;100.00;100994.03;6220024;28;20474;-73
2022/11/14 05:20:35;;;;;;;13.18;5.43;;;;;;;1.23;100.00;100986.47;6220293;28;20494;-73
2022/11/14 05:23:36;;;;;;;7.35;4.63;;;;;;;1.16;100.00;100990.78;6221170;28;20127;-73
2022/11/14 05:26:38;;;;;;;9.95;7.03;;;;;;;1.06;100.00;100999.44;6219972;28;20128;-73
2022/11/14 05:29:39;;;;;;;18.45;9.70;;;;;;;1.01;100.00;100989.19;6220016;28;20061;-73
2022/11/14 05:32:39;;;;;;;11.13;7.95;;;;;;;1.19;100.00;100995.91;6219859;28;20050;-73
2022/11/14 05:35:40;;;;;;;7.30;4.95;;;;;;;1.14;100.00;101003.66;6220096;28;20050;-73
2022/11/14 05:38:41;;;;;;;8.75;5.78;;;;;;;0.98;100.00;100995.19;6210814;28;20057;-71
2022/11/14 05:41:42;;;;;;;5.43;4.15;;;;;;;1.05;100.00;100990.00;6206217;28;20472;-70
2022/11/14 05:44:43;;;;;;;11.85;5.93;;;;;;;1.06;100.00;100986.59;6209547;28;20062;-71
2022/11/14 05:47:44;;;;;;;9.23;4.90;;;;;;;1.29;100.00;100988.97;6280557;28;20050;-71
2022/11/14 05:50:44;;;;;;;9.18;5.68;;;;;;;1.26;100.00;100994.16;6194906;28;20073;-71
2022/11/14 05:53:45;;;;;;;7.82;4.68;;;;;;;1.17;100.00;100989.91;6213010;28;20113;-71
2022/11/14 05:56:46;;;;;;;6.10;4.53;;;;;;;1.28;100.00;100989.88;6213750;28;20374;-71
2022/11/14 05:59:50;;;;;;;7.75;4.63;;;;;;;1.43;100.00;100988.88;6214950;28;20121;-71
2022/11/14 06:02:57;;;;;;;7.55;4.65;;;;;;;1.49;100.00;100988.81;6208741;28;20065;-73
2022/11/14 06:06:00;;;;;;;7.78;4.07;;;;;;;1.63;100.00;100993.81;6195732;28;20402;-73
2022/11/14 06:09:01;;;;;;;10.52;4.97;;;;;;;1.57;100.00;100993.03;6194040;28;20042;-73
2022/11/14 06:12:06;;;;;;;7.57;5.07;;;;;;;1.59;100.00;101004.16;6194715;28;20120;-73
2022/11/14 06:15:07;;;;;;;6.40;4.32;;;;;;;1.60;100.00;100999.84;6295740;28;20054;-73
2022/11/14 06:18:08;;;;;;;6.47;3.92;;;;;;;1.65;100.00;100997.25;6177030;28;20073;-73
2022/11/14 06:21:14;;;;;;;10.70;6.10;;;;;;;1.78;100.00;101014.28;6194614;28;20054;-73
2022/11/14 06:24:15;;;;;;;5.45;3.80;;;;;;;1.88;100.00;101005.59;6195077;28;20042;-73
2022/11/14 06:27:15;;;;;;;7.20;3.83;;;;;;;1.97;100.00;101005.50;6193157;28;20164;-73
2022/11/14 06:30:17;;;;;;;8.98;4.88;;;;;;;2.06;100.00;100993.41;6193582;28;20137;-73
2022/11/14 06:33:17;;;;;;;10.25;5.68;;;;;;;2.25;100.00;101006.94;6194850;28;20050;-73
2022/11/14 06:36:18;;;;;;;7.20;4.95;;;;;;;2.35;100.00;101000.81;6194732;28;20042;-73
2022/11/14 06:39:19;;;;;;;12.65;6.00;;;;;;;2.48;100.00;101006.66;6193434;28;20503;-73
2022/11/14 06:42:19;;;;;;;7.05;5.00;;;;;;;2.61;100.00;101008.19;6193518;28;20038;-73
2022/11/14 06:45:23;;;;;;;12.13;4.82;;;;;;;2.74;100.00;101008.88;6279046;28;20429;-73
2022/11/14 06:48:23;;;;;;;15.15;7.53;;;;;;;2.91;100.00;101009.53;6195134;28;20047;-73
2022/11/14 06:51:24;;;;;;;11.73;6.13;;;;;;;2.94;100.00;101008.63;6194390;28;20517;-73
2022/11/14 06:54:25;;;;;;;8.30;5.88;;;;;;;3.09;100.00;101011.00;6193339;28;20042;-73
2022/11/14 06:57:26;;;;;;;7.53;4.63;;;;;;;3.08;100.00;101005.84;6193161;28;20058;-73
2022/11/14 07:00:26;;;;;;;6.47;3.92;;;;;;;3.27;100.00;101006.41;6194483;28;20050;-73
2022/11/14 07:03:27;;;;;;;7.97;5.43;;;;;;;3.42;100.00;101017.34;6193117;28;20062;-73
2022/11/14 07:06:29;;;;;;;7.30;4.18;;;;;;;3.47;100.00;101012.09;6193059;28;20046;-73
2022/11/14 07:09:30;;;;;;;7.70;5.03;;;;;;;3.70;100.00;101011.72;6193326;28;20043;-73
2022/11/14 07:12:31;;;;;;;10.30;5.18;;;;;;;3.86;100.00;101008.88;6194295;28;20443;-73
2022/11/14 07:15:32;;;;;;;5.78;4.25;;;;;;;3.87;100.00;101005.41;6193350;28;20481;-73
2022/11/14 07:18:33;;;;;;;5.97;4.63;;;;;;;3.93;100.00;101010.47;6194171;28;20072;-73
2022/11/14 07:21:34;;;;;;;7.53;4.70;;;;;;;4.08;100.00;101010.19;6195730;28;20049;-73
2022/11/14 07:24:34;;;;;;;9.05;4.25;;;;;;;4.17;100.00;101002.25;6206961;28;20053;-71
2022/11/14 07:27:35;;;;;;;8.40;4.93;;;;;;;4.26;100.00;101014.13;6184751;28;20469;-70
2022/11/14 07:30:40;;;;;;;10.45;4.43;;;;;;;4.49;100.00;101016.28;6193487;28;20070;-70
2022/11/14 07:33:42;;;;;;;6.80;3.90;;;;;;;4.57;100.00;101019.56;6215074;28;20050;-70
2022/11/14 07:36:43;;;;;;;10.82;5.85;;;;;;;4.64;100.00;101015.09;6216706;28;20488;-70
2022/11/14 07:39:45;;;;;;;8.73;4.50;;;;;;;4.82;100.00;101017.28;6219880;28;20044;-71
2022/11/14 07:42:48;;;;;;;18.40;5.38;;;;;;;5.12;100.00;101019.22;6220950;28;20042;-70
2022/11/14 07:45:49;;;;;;;7.28;5.53;;;;;;;5.18;100.00;101017.34;6220924;28;20045;-70
2022/11/14 07:48:52;;;;;;;6.40;5.10;;;;;;;5.39;100.00;101018.56;6214113;28;20046;-70
2022/11/14 07:51:53;;;;;;;7.35;4.82;;;;;;;5.26;100.00;101022.34;6207212;28;20046;-70
2022/11/14 07:54:53;;;;;;;7.50;4.43;;;;;;;5.44;100.00;101013.28;6220729;28;20413;-70
2022/11/14 07:57:57;;;;;;;9.65;5.57;;;;;;;5.63;100.00;101021.44;6204906;28;20077;-70
2022/11/14 08:01:02;;;;;;;8.63;5.25;;;;;;;5.86;100.00;101023.44;6212549;28;20042;-70
2022/11/14 08:04:02;;;;;;;8.43;4.80;;;;;;;5.89;100.00;101014.72;6203025;28;20121;-71
2022/11/14 08:07:03;;;;;;;12.00;5.50;;;;;;;6.01;100.00;101010.13;6196268;28;20066;-70
2022/11/14 08:10:05;;;;;;;9.50;5.40;;;;;;;6.31;100.00;101005.00;6180091;28;20046;-70
2022/11/14 08:13:07;;;;;;;7.50;4.38;;;;;;;6.50;100.00;101007.06;6322528;27;20046;-70
2022/11/14 08:16:09;;;;;;;9.65;4.95;;;;;;;6.52;100.00;101005.28;6212666;28;20592;-70
2022/11/14 08:19:10;;;;;;;9.88;5.13;;;;;;;6.65;100.00;100999.69;6198696;28;20422;-70
2022/11/14 08:22:11;;;;;;;13.82;5.32;;;;;;;6.86;100.00;101007.72;6198214;28;20513;-71
2022/11/14 08:25:11;;;;;;;9.75;5.78;;;;;;;6.98;100.00;101004.75;6220088;28;20072;-70
2022/11/14 08:28:12;;;;;;;11.13;4.97;;;;;;;7.43;100.00;101016.31;6221217;28;20042;-70
2022/11/14 08:31:13;;;;;;;9.77;5.15;;;;;;;7.33;100.00;101004.50;6215860;28;20042;-70
2022/11/14 08:34:13;;;;;;;8.25;4.97;;;;;;;7.58;100.00;101007.19;6205315;28;20554;-70
2022/11/14 08:37:14;;;;;;;8.50;5.53;;;;;;;7.87;100.00;100999.22;6205791;28;20070;-71
2022/11/14 08:40:15;;;;;;;7.80;5.00;;;;;;;7.71;100.00;100995.47;6205171;28;20054;-70
2022/11/14 08:43:15;;;;;;;9.68;5.78;;;;;;;7.83;100.00;100995.03;6219785;28;20398;-71
2022/11/14 08:46:16;;;;;;;11.43;5.82;;;;;;;7.97;100.00;100991.09;6219716;28;20052;-71
2022/11/14 08:49:17;;;;;;;11.32;5.85;;;;;;;7.80;100.00;100989.09;6202488;28;20054;-70
2022/11/14 08:52:18;;;;;;;10.02;5.35;;;;;;;8.22;100.00;100985.91;6322558;27;20069;-71
2022/11/14 08:55:19;;;;;;;9.20;6.03;;;;;;;8.24;100.00;100982.31;6203204;28;20046;-71
2022/11/14 08:58:20;;;;;;;9.15;6.05;;;;;;;8.39;100.00;100982.66;6220674;28;20080;-71
2022/11/14 09:01:21;;;;;;;9.43;6.30;;;;;;;8.70;100.00;100985.00;6220550;28;20046;-72
2022/11/14 09:04:21;;;;;;;8.23;5.50;;;;;;;8.77;96.47;100985.59;6219489;28;20046;-71
2022/11/14 09:07:22;;;;;;;7.80;5.50;;;;;;;8.72;93.48;100982.34;6219353;28;20554;-71
2022/11/14 09:10:23;;;;;;;9.85;6.13;;;;;;;8.80;94.25;100977.69;6200911;28;20058;-71
2022/11/14 09:13:23;;;;;;;8.48;5.65;;;;;;;8.72;94.53;100983.19;6194985;28;20129;-71
2022/11/14 09:16:26;;;;;;;10.40;6.07;;;;;;;9.05;94.13;100982.75;6195112;28;20122;-71
2022/11/14 09:19:27;;;;;;;11.13;7.13;;;;;;;9.26;93.39;100968.03;6297113;28;20122;-71
2022/11/14 09:22:30;;;;;;;13.80;7.50;;;;;;;9.55;93.49;100972.03;6194628;28;20050;-71
2022/11/14 09:25:31;;;;;;;10.57;6.70;;;;;;;9.41;89.33;100972.63;6285572;28;20050;-71
2022/11/14 09:28:32;;;;;;;11.07;6.80;;;;;;;9.56;89.34;100963.31;6199744;28;20038;-71
2022/11/14 09:31:33;;;;;;;11.02;7.05;;;;;;;9.47;92.17;100967.16;6195831;28;20076;-71
2022/11/14 09:34:34;;;;;;;9.95;6.35;;;;;;;9.69;87.50;100971.44;6195645;28;20050;-70
2022/11/14 09:37:34;;;;;;;11.30;6.72;;;;;;;9.46;86.66;100962.84;6194519;28;20046;-70
2022/11/14 09:40:50;;;;;;;11.52;7.43;;;;;;;9.59;88.30;100970.13;6195452;28;20527;-70
2022/11/14 09:44:09;;;;;;;10.48;6.78;;;;;;;9.96;87.79;100961.56;6194330;28;20113;-71
2022/11/14 09:47:17;;;;;;;9.95;6.30;;;;;;;10.01;87.02;100959.63;6195536;28;20045;-70
2022/11/14 09:50:24;;;;;;;13.15;7.13;;;;;;;10.23;85.35;100956.06;6195435;28;20054;-71
2022/11/14 09:53:41;;;;;;;9.68;6.75;;;;;;;10.33;85.61;100957.34;6194068;28;20410;-70
2022/11/14 09:56:42;;;;;;;10.23;6.35;;;;;;;10.12;85.84;100956.53;6194299;28;20417;-70
2022/11/14 09:59:43;;;;;;;14.68;7.95;;;;;;;10.26;85.76;100953.31;6193751;28;20115;-71
2022/11/14 10:03:05;;;;;;;12.98;7.43;;;;;;;10.34;86.63;100955.63;6188108;28;20104;-70
2022/11/14 10:06:21;;;;;;;;;;;;;;;10.37;84.97;100940.66;6301140;27;20053;-71
2022/11/14 10:09:46;;;;;;;11.23;5.72;;;;;;;10.58;85.15;100946.63;6206027;28;20349;-71
2022/11/14 10:12:56;;;;;;;12.23;7.65;;;;;;;10.51;84.17;100945.25;6204822;28;20046;-71
2022/11/14 10:16:21;;;;;;;9.68;6.40;;;;;;;10.65;83.12;100931.56;6214574;28;20557;-71
2022/11/14 10:19:33;;;;;;;10.25;6.72;;;;;;;10.98;84.01;100934.31;6193776;28;20050;-70
2022/11/14 10:22:37;;;;;;;15.10;7.07;;;;;;;10.96;79.07;100928.31;6189950;28;20148;-71
2022/11/14 10:25:47;;;;;;;10.73;6.53;;;;;;;11.12;79.43;100930.16;6219215;28;20050;-71
2022/11/14 10:29:06;;;;;;;9.20;6.38;;;;;;;11.09;78.90;100925.94;6219044;28;20095;-71
2022/11/14 10:32:26;;;;;;;9.57;6.25;;;;;;;11.21;78.03;100927.09;6192686;28;20046;-71
2022/11/14 10:35:37;;;;;;;10.82;6.28;;;;;;;10.90;76.14;100915.56;6218869;28;20498;-71
2022/11/14 10:38:46;;;;;;;10.30;6.53;;;;;;;11.15;76.84;100923.03;6201938;28;20074;-71
2022/11/14 10:41:51;;;;;;;10.63;5.88;;;;;;;11.33;78.83;100918.66;6193132;28;20070;-71
2022/11/14 10:45:03;;;;;;;10.23;6.00;;;;;;;11.48;74.85;100907.41;6194520;28;20425;-71
2022/11/14 10:48:15;;;;;;;12.50;7.20;;;;;;;11.20;75.43;100904.50;6194299;28;20047;-71
2022/11/14 10:51:34;;;;;;;;;;;;;;;11.51;74.25;100909.03;6195700;28;20073;-71
2022/11/14 10:54:55;;;;;;;10.55;6.10;;;;;;;11.63;75.05;100904.94;6195013;28;19967;-71
2022/11/14 10:57:56;;;;;;;13.32;6.90;;;;;;;11.68;75.09;100893.31;6194020;28;20038;-71
2022/11/14 11:01:37;;;;;;;18.98;8.75;;;;;;;11.82;73.92;100896.97;6176808;28;20399;-71
2022/11/14 11:04:43;;;;;;;12.95;7.45;;;;;;;11.76;75.82;100890.31;6194260;28;20519;-71
2022/11/14 11:11:29;;;;;;;13.98;8.30;;;;;;;11.87;76.42;100887.13;6193974;28;20066;-71
2022/11/14 11:14:31;;;;;;;13.02;8.00;;;;;;;11.76;75.63;100887.69;6196904;28;20468;-71
2022/11/14 11:17:32;;;;;;;14.45;7.90;;;;;;;12.01;77.23;100886.41;6198164;28;20046;-71
2022/11/14 11:20:42;;;;;;;12.13;6.65;;;;;;;12.03;75.40;100890.63;6196709;28;20050;-71
2022/11/14 11:23:54;;;;;;;10.48;6.70;;;;;;;12.16;75.16;100884.75;6197046;28;20406;-73
2022/11/14 11:27:19;;;;;;;11.18;6.82;;;;;;;12.00;77.48;100888.16;6180882;28;20058;-73
2022/11/14 11:30:24;;;;;;;8.93;5.85;;;;;;;12.22;73.87;100873.94;6196959;28;20490;-73
2022/11/14 11:33:28;;;;;;;9.38;6.18;;;;;;;12.30;74.13;100876.97;6196986;28;20074;-73
2022/11/14 11:36:33;;;;;;;11.40;6.35;;;;;;;12.16;75.12;100869.88;6197027;28;20043;-73
2022/11/14 11:39:40;;;;;;;8.57;6.03;;;;;;;12.10;74.64;100862.38;6180477;28;20050;-73
2022/11/14 11:43:05;;;;;;;10.20;6.45;;;;;;;12.21;75.27;100864.38;6198029;28;20455;-73
2022/11/14 11:46:23;;;;;;;12.27;7.47;;;;;;;12.14;74.31;100865.66;6196868;28;20466;-73
2022/11/14 11:49:36;;;;;;;10.15;6.35;;;;;;;12.29;75.40;100856.97;6180405;28;20062;-73
2022/11/14 11:53:01;;;;;;;8.80;6.00;;;;;;;12.33;82.89;100849.78;6180413;28;20137;-73
2022/11/14 11:56:11;;;;;;;11.32;6.40;;;;;;;12.47;83.49;100855.09;6196495;28;20054;-73
2022/11/14 11:59:39;;;;;;;9.68;6.53;;;;;;;12.37;84.04;100846.91;6197842;28;20042;-73
2022/11/14 12:02:44;;;;;;;9.55;6.50;;;;;;;12.24;84.31;100841.53;6282009;28;20456;-73
2022/11/14 12:05:53;;;;;;;10.75;6.25;;;;;;;12.37;83.42;100846.06;6180261;28;20054;-73
2022/11/14 12:09:21;;;;;;;13.25;6.70;;;;;;;12.42;84.01;100841.44;6197466;28;20042;-73
2022/11/14 12:12:29;;;;;;;9.40;6.05;;;;;;;12.34;82.92;100834.00;6196308;28;20043;-73
2022/11/14 12:16:08;;;;;;;9.20;6.15;;;;;;;12.26;81.10;100837.06;6197467;28;20039;-73
2022/11/14 12:19:52;;;;;;;12.25;6.65;;;;;;;12.34;79.87;100827.94;6196092;28;20050;-73
2022/11/14 12:23:04;;;;;;;8.88;5.55;;;;;;;12.30;77.03;100825.47;6197139;28;20035;-73
2022/11/14 12:26:14;;;;;;;12.63;7.05;;;;;;;12.42;76.86;100816.09;6195451;28;20146;-73
2022/11/14 12:29:22;;;;;;;10.50;6.82;;;;;;;12.49;79.11;100809.59;6196119;28;20455;-73
2022/11/14 12:32:36;;;;;;;15.38;6.78;;;;;;;12.39;78.15;100812.81;6196009;28;20111;-73
2022/11/14 12:35:46;;;;;;;10.35;6.65;;;;;;;12.46;77.22;100801.91;6197091;28;20066;-73
2022/11/14 12:38:51;;;;;;;8.65;6.28;;;;;;;12.40;77.23;100801.44;6281142;28;20172;-73
2022/11/14 12:42:09;;;;;;;10.80;6.70;;;;;;;12.43;76.24;100798.63;6195563;28;20141;-74
2022/11/14 12:45:51;;;;;;;11.65;7.13;;;;;;;12.37;77.24;100801.59;6196968;28;20569;-73
2022/11/14 12:48:52;;;;;;;11.83;6.37;;;;;;;12.36;78.79;100795.53;6271359;28;20053;-73
2022/11/14 12:51:53;;;;;;;9.07;6.50;;;;;;;12.30;76.19;100788.00;6271146;28;20438;-73
2022/11/14 12:54:53;;;;;;;9.25;6.10;;;;;;;12.33;76.49;100794.84;6197305;28;20510;-73
2022/11/14 12:58:08;;;;;;;9.82;6.25;;;;;;;12.50;76.35;100798.19;6281004;28;20054;-73
2022/11/14 13:01:24;;;;;;;10.57;6.50;;;;;;;12.44;76.26;100803.78;6280620;28;20054;-73
2022/11/14 13:04:41;;;;;;;13.77;6.53;;;;;;;12.29;76.29;100797.66;6196486;28;20077;-73
2022/11/14 13:08:08;;;;;;;11.02;6.85;;;;;;;12.30;76.63;100801.09;6195225;28;20054;-73
2022/11/14 13:22:13;;;;;;;9.82;6.57;;;;;;;12.36;77.38;100787.66;6220172;28;20431;-74
2022/11/14 13:25:14;;;;;;;11.23;6.28;;;;;;;12.36;78.40;100773.75;6198790;28;20054;-73
2022/11/14 13:28:37;;;;;;;10.93;7.50;;;;;;;12.39;77.98;100782.25;6193805;28;20103;-73
2022/11/14 13:31:46;;;;;;;12.60;6.50;;;;;;;12.24;79.59;100786.59;6195068;28;20066;-73
2022/11/14 13:35:01;;;;;;;11.05;6.97;;;;;;;12.19;80.56;100774.69;6195069;28;20051;-73
2022/11/14 13:38:58;;;;;;;11.32;6.95;;;;;;;12.19;79.30;100769.44;6195989;28;20122;-74
2022/11/14 13:42:04;;;;;;;11.63;6.25;;;;;;;12.09;79.89;100777.00;6190818;28;20590;-73
2022/11/14 13:45:36;;;;;;;11.05;6.85;;;;;;;12.03;81.40;100783.41;6219116;28;20042;-73
2022/11/14 13:48:42;;;;;;;13.88;7.60;;;;;;;11.92;80.14;100775.28;6219298;28;20046;-73
2022/11/14 13:51:45;;;;;;;16.90;8.43;;;;;;;11.82;82.05;100774.94;6220066;28;20057;-73
2022/11/14 13:54:47;;;;;;;10.43;7.55;;;;;;;11.83;82.95;100778.38;6219055;28;20056;-73
2022/11/14 13:57:54;;;;;;;13.00;7.63;;;;;;;11.66;82.01;100777.53;6202510;28;20554;-73
2022/11/14 14:01:04;;;;;;;14.13;8.45;;;;;;;11.59;82.45;100762.25;6218801;28;20099;-73
2022/11/14 14:04:32;;;;;;;13.60;8.07;;;;;;;11.44;83.13;100756.91;6218709;28;20508;-73
2022/11/14 14:07:51;;;;;;;16.88;7.90;;;;;;;11.46;83.55;100760.31;6218701;28;20399;-73
2022/11/14 14:11:08;;;;;;;15.02;8.75;;;;;;;11.38;85.09;100769.47;6219935;28;20500;-73
2022/11/14 14:14:31;;;;;;;11.65;7.50;;;;;;;11.23;86.17;100755.47;6279321;28;20537;-73
2022/11/14 14:17:52;;;;;;;14.80;8.43;;;;;;;11.12;87.74;100752.56;6196571;28;20054;-73
2022/11/14 14:21:24;;;;;;;15.75;8.23;;;;;;;11.03;89.05;100752.09;6217498;28;20098;-73
2022/11/14 14:24:51;;;;;;;14.65;8.23;;;;;;;10.91;90.09;100750.13;6218177;28;20038;-74
2022/11/14 14:28:07;;;;;;;12.82;8.30;;;;;;;10.78;90.91;100742.09;6304278;28;20390;-73
2022/11/14 14:31:22;;;;;;;14.88;8.57;;;;;;;10.55;92.35;100740.63;6202260;28;20409;-71
2022/11/14 14:34:27;;;;;;;17.27;9.60;;;;;;;10.50;93.29;100740.03;6218860;28;20053;-71